createdAt,value
2018-09-13T00:00:33.764Z,1006.41
2018-09-13T00:01:33.754Z,1006.40
2018-09-13T00:02:33.753Z,1006.35
2018-09-13T00:03:33.732Z,1006.36
2018-09-13T00:04:33.720Z,1006.34
2018-09-13T00:05:33.724Z,1006.33
2018-09-13T00:06:33.696Z,1006.25
2018-09-13T00:07:33.681Z,1006.29
2018-09-13T00:08:33.673Z,1006.27
2018-09-13T00:09:33.688Z,1006.24
2018-09-13T00:10:33.656Z,1006.23
2018-09-13T00:11:33.646Z,1006.24
2018-09-13T00:12:33.631Z,1006.30
2018-09-13T00:13:33.623Z,1006.30
2018-09-13T00:14:33.605Z,1006.28
2018-09-13T00:15:33.616Z,1006.27
2018-09-13T00:16:33.585Z,1006.26
2018-09-13T00:17:33.577Z,1006.27
2018-09-13T00:18:33.568Z,1006.25
2018-09-13T00:19:33.550Z,1006.24
2018-09-13T00:20:33.610Z,1006.21
2018-09-13T00:21:33.533Z,1006.15
2018-09-13T00:22:33.524Z,1006.16
2018-09-13T00:23:33.513Z,1006.15
2018-09-13T00:24:33.500Z,1006.10
2018-09-13T00:25:33.507Z,1006.13
2018-09-13T00:26:33.499Z,1006.14
2018-09-13T00:27:33.470Z,1006.14
2018-09-13T00:28:33.459Z,1006.15
2018-09-13T00:29:33.449Z,1006.14
2018-09-13T00:30:33.437Z,1006.11
2018-09-13T00:31:33.429Z,1006.11
2018-09-13T00:32:33.434Z,1006.10
2018-09-13T00:33:33.401Z,1006.11
2018-09-13T00:34:33.387Z,1006.06
2018-09-13T00:35:33.387Z,1006.09
2018-09-13T00:36:33.382Z,1006.14
2018-09-13T00:37:33.374Z,1006.13
2018-09-13T00:38:33.344Z,1006.13
2018-09-13T00:39:33.332Z,1006.14
2018-09-13T00:40:33.324Z,1006.11
2018-09-13T00:41:33.316Z,1006.10
2018-09-13T00:42:33.329Z,1006.07
2018-09-13T00:43:33.296Z,1006.05
2018-09-13T00:44:33.285Z,1006.07
2018-09-13T00:45:33.268Z,1006.07
2018-09-13T00:46:33.255Z,1006.03
2018-09-13T00:47:33.246Z,1006.02
2018-09-13T00:48:33.253Z,1005.98
2018-09-13T00:49:33.227Z,1006.01
2018-09-13T00:50:33.245Z,1005.99
2018-09-13T00:51:33.202Z,1005.99
2018-09-13T00:52:33.199Z,1006.00
2018-09-13T00:53:33.186Z,1006.00
2018-09-13T00:54:33.175Z,1006.02
2018-09-13T00:55:33.163Z,1006.04
2018-09-13T00:56:33.167Z,1006.03
2018-09-13T00:57:33.137Z,1005.99
2018-09-13T00:58:33.128Z,1006.05
2018-09-13T00:59:33.114Z,1006.00
2018-09-13T01:00:33.107Z,1005.97
2018-09-13T01:01:33.122Z,1005.98
2018-09-13T01:02:33.088Z,1006.01
2018-09-13T01:03:33.076Z,1006.03
2018-09-13T01:04:33.063Z,1006.02
2018-09-13T01:05:33.050Z,1006.06
2018-09-13T01:06:33.038Z,1006.08
2018-09-13T01:07:33.057Z,1006.12
2018-09-13T01:08:33.020Z,1006.10
2018-09-13T01:09:33.010Z,1006.10
2018-09-13T01:10:33.037Z,1006.16
2018-09-13T01:11:32.983Z,1006.17
2018-09-13T01:12:32.974Z,1006.14
2018-09-13T01:13:32.983Z,1006.14
2018-09-13T01:14:32.959Z,1006.14
2018-09-13T01:15:33.005Z,1006.13
2018-09-13T01:16:32.932Z,1006.11
2018-09-13T01:17:32.948Z,1006.06
2018-09-13T01:18:32.907Z,1006.08
2018-09-13T01:19:32.895Z,1006.05
2018-09-13T01:20:32.898Z,1006.08
2018-09-13T01:21:32.879Z,1006.06
2018-09-13T01:22:32.874Z,1006.06
2018-09-13T01:23:32.872Z,1006.09
2018-09-13T01:24:32.843Z,1006.10
2018-09-13T01:25:32.843Z,1006.11
2018-09-13T01:26:32.842Z,1006.03
2018-09-13T01:27:32.815Z,1006.09
2018-09-13T01:28:32.836Z,1006.06
2018-09-13T01:29:32.790Z,1006.05
2018-09-13T01:30:32.791Z,1006.04
2018-09-13T01:31:32.764Z,1006.04
2018-09-13T01:32:32.756Z,1006.03
2018-09-13T01:33:32.751Z,1006.05
2018-09-13T01:34:32.758Z,1005.99
2018-09-13T01:35:32.729Z,1006.00
2018-09-13T01:36:32.733Z,1006.02
2018-09-13T01:37:32.707Z,1006.00
2018-09-13T01:38:32.689Z,1005.98
2018-09-13T01:39:32.684Z,1006.00
2018-09-13T01:40:32.671Z,1005.98
2018-09-13T01:41:32.682Z,1006.02
2018-09-13T01:42:32.647Z,1005.98
2018-09-13T01:43:32.636Z,1005.99
2018-09-13T01:44:32.627Z,1006.01
2018-09-13T01:45:32.621Z,1006.04
2018-09-13T01:46:32.609Z,1006.02
2018-09-13T01:47:32.617Z,1006.02
2018-09-13T01:48:32.588Z,1006.04
2018-09-13T01:49:32.571Z,1006.00
2018-09-13T01:50:32.560Z,1006.01
2018-09-13T01:51:32.550Z,1006.01
2018-09-13T01:52:32.563Z,1005.99
2018-09-13T01:53:32.533Z,1005.95
2018-09-13T01:54:32.522Z,1005.94
2018-09-13T01:55:32.504Z,1005.92
2018-09-13T01:56:32.495Z,1005.93
2018-09-13T01:57:32.495Z,1005.94
2018-09-13T01:58:32.498Z,1005.91
2018-09-13T01:59:32.469Z,1005.89
2018-09-13T02:00:32.454Z,1005.90
2018-09-13T02:01:32.446Z,1005.85
2018-09-13T02:02:32.446Z,1005.86
2018-09-13T02:03:32.419Z,1005.86
2018-09-13T02:04:32.414Z,1005.83
2018-09-13T02:05:32.400Z,1005.76
2018-09-13T02:06:32.394Z,1005.79
2018-09-13T02:07:32.397Z,1005.78
2018-09-13T02:08:32.371Z,1005.76
2018-09-13T02:09:32.375Z,1005.76
2018-09-13T02:10:32.342Z,1005.74
2018-09-13T02:11:32.342Z,1005.76
2018-09-13T02:12:32.323Z,1005.83
2018-09-13T02:13:32.310Z,1005.85
2018-09-13T02:14:32.314Z,1005.76
2018-09-13T02:15:32.307Z,1005.77
2018-09-13T02:16:32.282Z,1005.78
2018-09-13T02:17:32.272Z,1005.74
2018-09-13T02:18:32.259Z,1005.70
2018-09-13T02:19:32.272Z,1005.68
2018-09-13T02:20:32.235Z,1005.68
2018-09-13T02:21:32.221Z,1005.66
2018-09-13T02:22:32.210Z,1005.64
2018-09-13T02:23:32.217Z,1005.62
2018-09-13T02:24:32.201Z,1005.62
2018-09-13T02:25:32.206Z,1005.59
2018-09-13T02:26:32.172Z,1005.64
2018-09-13T02:27:32.157Z,1005.62
2018-09-13T02:28:32.145Z,1005.68
2018-09-13T02:29:32.136Z,1005.68
2018-09-13T02:30:32.128Z,1005.65
2018-09-13T02:31:32.139Z,1005.65
2018-09-13T02:32:32.103Z,1005.62
2018-09-13T02:33:32.093Z,1005.64
2018-09-13T02:34:32.078Z,1005.64
2018-09-13T02:35:32.073Z,1005.58
2018-09-13T02:36:32.083Z,1005.61
2018-09-13T02:37:32.051Z,1005.57
2018-09-13T02:38:32.046Z,1005.59
2018-09-13T02:39:32.030Z,1005.55
2018-09-13T02:40:32.020Z,1005.53
2018-09-13T02:41:32.009Z,1005.53
2018-09-13T02:42:32.029Z,1005.51
2018-09-13T02:43:31.988Z,1005.50
2018-09-13T02:44:31.975Z,1005.53
2018-09-13T02:45:31.977Z,1005.50
2018-09-13T02:46:31.948Z,1005.50
2018-09-13T02:47:31.964Z,1005.51
2018-09-13T02:48:32.051Z,1005.48
2018-09-13T02:49:31.922Z,1005.46
2018-09-13T02:50:31.906Z,1005.43
2018-09-13T02:51:31.899Z,1005.44
2018-09-13T02:52:31.888Z,1005.40
2018-09-13T02:53:31.895Z,1005.38
2018-09-13T02:54:31.882Z,1005.36
2018-09-13T02:55:31.850Z,1005.33
2018-09-13T02:56:31.837Z,1005.33
2018-09-13T02:57:31.835Z,1005.35
2018-09-13T02:58:31.821Z,1005.38
2018-09-13T02:59:31.826Z,1005.39
2018-09-13T03:00:31.811Z,1005.37
2018-09-13T03:01:31.789Z,1005.38
2018-09-13T03:02:31.781Z,1005.42
2018-09-13T03:03:31.768Z,1005.39
2018-09-13T03:04:31.776Z,1005.40
2018-09-13T03:05:31.763Z,1005.39
2018-09-13T03:06:31.744Z,1005.36
2018-09-13T03:07:31.720Z,1005.35
2018-09-13T03:08:31.714Z,1005.37
2018-09-13T03:09:31.720Z,1005.36
2018-09-13T03:10:31.691Z,1005.35
2018-09-13T03:11:31.680Z,1005.31
2018-09-13T03:12:31.711Z,1005.33
2018-09-13T03:13:31.656Z,1005.37
2018-09-13T03:14:31.660Z,1005.38
2018-09-13T03:15:31.633Z,1005.34
2018-09-13T03:16:31.625Z,1005.35
2018-09-13T03:17:31.608Z,1005.32
2018-09-13T03:18:31.603Z,1005.31
2018-09-13T03:19:31.607Z,1005.28
2018-09-13T03:20:31.598Z,1005.28
2018-09-13T03:21:31.570Z,1005.31
2018-09-13T03:22:31.557Z,1005.28
2018-09-13T03:23:31.562Z,1005.32
2018-09-13T03:24:31.547Z,1005.32
2018-09-13T03:25:31.542Z,1005.33
2018-09-13T03:26:31.531Z,1005.26
2018-09-13T03:27:31.501Z,1005.28
2018-09-13T03:28:31.486Z,1005.26
2018-09-13T03:29:31.485Z,1005.30
2018-09-13T03:30:31.492Z,1005.29
2018-09-13T03:31:31.462Z,1005.27
2018-09-13T03:32:31.453Z,1005.29
2018-09-13T03:33:31.449Z,1005.31
2018-09-13T03:34:31.424Z,1005.32
2018-09-13T03:35:31.440Z,1005.38
2018-09-13T03:36:31.406Z,1005.34
2018-09-13T03:37:31.390Z,1005.36
2018-09-13T03:38:31.381Z,1005.32
2018-09-13T03:39:31.431Z,1005.35
2018-09-13T03:40:31.380Z,1005.35
2018-09-13T03:41:31.352Z,1005.31
2018-09-13T03:42:31.341Z,1005.30
2018-09-13T03:43:31.328Z,1005.31
2018-09-13T03:44:31.322Z,1005.29
2018-09-13T03:45:31.322Z,1005.26
2018-09-13T03:46:31.295Z,1005.26
2018-09-13T03:47:31.289Z,1005.31
2018-09-13T03:48:31.274Z,1005.29
2018-09-13T03:49:31.258Z,1005.27
2018-09-13T03:50:31.294Z,1005.26
2018-09-13T03:51:31.240Z,1005.28
2018-09-13T03:52:31.227Z,1005.24
2018-09-13T03:53:31.232Z,1005.27
2018-09-13T03:54:31.209Z,1005.28
2018-09-13T03:55:31.239Z,1005.23
2018-09-13T03:56:31.198Z,1005.23
2018-09-13T03:57:31.177Z,1005.20
2018-09-13T03:58:31.163Z,1005.15
2018-09-13T03:59:31.150Z,1005.17
2018-09-13T04:00:31.158Z,1005.14
2018-09-13T04:01:31.134Z,1005.10
2018-09-13T04:02:31.145Z,1005.12
2018-09-13T04:03:31.263Z,1005.17
2018-09-13T04:04:31.101Z,1005.16
2018-09-13T04:05:31.112Z,1005.18
2018-09-13T04:06:31.084Z,1005.18
2018-09-13T04:07:31.069Z,1005.20
2018-09-13T04:08:31.064Z,1005.16
2018-09-13T04:09:31.040Z,1005.18
2018-09-13T04:10:31.049Z,1005.20
2018-09-13T04:11:31.021Z,1005.19
2018-09-13T04:12:31.010Z,1005.17
2018-09-13T04:13:31.027Z,1005.19
2018-09-13T04:14:30.990Z,1005.24
2018-09-13T04:15:30.998Z,1005.22
2018-09-13T04:16:30.972Z,1005.23
2018-09-13T04:17:30.958Z,1005.23
2018-09-13T04:18:30.949Z,1005.26
2018-09-13T04:19:30.940Z,1005.23
2018-09-13T04:20:30.955Z,1005.27
2018-09-13T04:21:30.910Z,1005.24
2018-09-13T04:22:30.973Z,1005.26
2018-09-13T04:23:30.889Z,1005.24
2018-09-13T04:24:30.876Z,1005.19
2018-09-13T04:25:30.870Z,1005.22
2018-09-13T04:26:30.877Z,1005.20
2018-09-13T04:27:30.870Z,1005.22
2018-09-13T04:28:30.838Z,1005.23
2018-09-13T04:29:30.820Z,1005.20
2018-09-13T04:30:30.828Z,1005.24
2018-09-13T04:31:30.801Z,1005.28
2018-09-13T04:32:30.788Z,1005.23
2018-09-13T04:33:30.782Z,1005.22
2018-09-13T04:34:30.845Z,1005.24
2018-09-13T04:35:30.786Z,1005.25
2018-09-13T04:36:30.765Z,1005.27
2018-09-13T04:37:30.738Z,1005.27
2018-09-13T04:38:30.726Z,1005.30
2018-09-13T04:39:30.739Z,1005.31
2018-09-13T04:40:30.712Z,1005.33
2018-09-13T04:41:30.689Z,1005.32
2018-09-13T04:42:30.694Z,1005.33
2018-09-13T04:43:30.671Z,1005.37
2018-09-13T04:44:30.655Z,1005.36
2018-09-13T04:45:30.680Z,1005.37
2018-09-13T04:46:30.638Z,1005.37
2018-09-13T04:47:30.633Z,1005.34
2018-09-13T04:48:30.621Z,1005.35
2018-09-13T04:49:30.608Z,1005.34
2018-09-13T04:50:30.598Z,1005.32
2018-09-13T04:51:30.605Z,1005.30
2018-09-13T04:52:30.579Z,1005.30
2018-09-13T04:53:30.562Z,1005.27
2018-09-13T04:54:30.554Z,1005.30
2018-09-13T04:55:30.548Z,1005.32
2018-09-13T04:56:30.550Z,1005.30
2018-09-13T04:57:30.527Z,1005.31
2018-09-13T04:58:30.508Z,1005.29
2018-09-13T04:59:30.496Z,1005.34
2018-09-13T05:00:30.492Z,1005.33
2018-09-13T05:01:30.491Z,1005.34
2018-09-13T05:02:30.462Z,1005.32
2018-09-13T05:03:30.451Z,1005.33
2018-09-13T05:04:30.491Z,1005.34
2018-09-13T05:05:31.219Z,1005.34
2018-09-13T05:06:30.464Z,1005.28
2018-09-13T05:07:30.424Z,1005.29
2018-09-13T05:08:30.394Z,1005.33
2018-09-13T05:09:30.391Z,1005.28
2018-09-13T05:10:30.409Z,1005.28
2018-09-13T05:11:30.370Z,1005.29
2018-09-13T05:12:30.393Z,1005.28
2018-09-13T05:13:30.341Z,1005.30
2018-09-13T05:14:30.331Z,1005.34
2018-09-13T05:15:30.335Z,1005.33
2018-09-13T05:16:30.327Z,1005.36
2018-09-13T05:17:30.339Z,1005.33
2018-09-13T05:18:30.292Z,1005.36
2018-09-13T05:19:30.300Z,1005.39
2018-09-13T05:20:30.320Z,1005.38
2018-09-13T05:21:30.290Z,1005.39
2018-09-13T05:22:30.245Z,1005.40
2018-09-13T05:23:30.243Z,1005.40
2018-09-13T05:24:30.327Z,1005.39
2018-09-13T05:25:30.262Z,1005.42
2018-09-13T05:26:30.824Z,1005.45
2018-09-13T05:27:30.203Z,1005.43
2018-09-13T05:28:30.189Z,1005.42
2018-09-13T05:29:30.175Z,1005.43
2018-09-13T05:30:30.159Z,1005.46
2018-09-13T05:31:30.184Z,1005.41
2018-09-13T05:32:30.141Z,1005.45
2018-09-13T05:33:30.121Z,1005.46
2018-09-13T05:34:30.116Z,1005.47
2018-09-13T05:35:30.104Z,1005.42
2018-09-13T05:36:30.108Z,1005.44
2018-09-13T05:37:30.086Z,1005.42
2018-09-13T05:38:30.086Z,1005.44
2018-09-13T05:39:31.068Z,1005.43
2018-09-13T05:40:30.048Z,1005.44
2018-09-13T05:41:30.062Z,1005.48
2018-09-13T05:42:30.033Z,1005.47
2018-09-13T05:43:30.020Z,1005.51
2018-09-13T05:44:30.030Z,1005.48
2018-09-13T05:45:29.991Z,1005.48
2018-09-13T05:46:30.001Z,1005.45
2018-09-13T05:47:29.971Z,1005.48
2018-09-13T05:48:29.958Z,1005.45
2018-09-13T05:49:29.978Z,1005.50
2018-09-13T05:50:29.949Z,1005.49
2018-09-13T05:51:29.958Z,1005.46
2018-09-13T05:52:29.941Z,1005.51
2018-09-13T05:53:29.932Z,1005.51
2018-09-13T05:54:31.051Z,1005.52
2018-09-13T05:55:29.906Z,1005.49
2018-09-13T05:56:29.900Z,1005.49
2018-09-13T05:57:29.890Z,1005.51
2018-09-13T05:58:29.851Z,1005.51
2018-09-13T05:59:29.841Z,1005.49
2018-09-13T06:00:29.832Z,1005.45
2018-09-13T06:01:29.911Z,1005.50
2018-09-13T06:02:29.814Z,1005.48
2018-09-13T06:03:30.085Z,1005.50
2018-09-13T06:04:29.793Z,1005.51
2018-09-13T06:05:29.792Z,1005.52
2018-09-13T06:06:29.764Z,1005.54
2018-09-13T06:07:29.754Z,1005.55
2018-09-13T06:08:29.759Z,1005.56
2018-09-13T06:09:29.742Z,1005.53
2018-09-13T06:10:30.558Z,1005.54
2018-09-13T06:11:29.727Z,1005.53
2018-09-13T06:12:29.700Z,1005.55
2018-09-13T06:13:29.734Z,1005.54
2018-09-13T06:14:29.679Z,1005.55
2018-09-13T06:15:29.676Z,1005.56
2018-09-13T06:16:29.677Z,1005.60
2018-09-13T06:17:29.641Z,1005.59
2018-09-13T06:18:29.633Z,1005.56
2018-09-13T06:19:29.624Z,1005.58
2018-09-13T06:20:29.617Z,1005.63
2018-09-13T06:21:29.633Z,1005.63
2018-09-13T06:22:29.594Z,1005.63
2018-09-13T06:23:29.598Z,1005.60
2018-09-13T06:24:29.571Z,1005.63
2018-09-13T06:25:29.561Z,1005.60
2018-09-13T06:26:29.566Z,1005.61
2018-09-13T06:27:29.541Z,1005.61
2018-09-13T06:28:29.541Z,1005.63
2018-09-13T06:29:29.577Z,1005.62
2018-09-13T06:30:29.516Z,1005.65
2018-09-13T06:31:29.520Z,1005.60
2018-09-13T06:32:29.481Z,1005.63
2018-09-13T06:33:29.506Z,1005.61
2018-09-13T06:34:29.464Z,1005.64
2018-09-13T06:35:29.460Z,1005.63
2018-09-13T06:36:29.519Z,1005.63
2018-09-13T06:37:29.430Z,1005.66
2018-09-13T06:38:29.435Z,1005.69
2018-09-13T06:39:29.407Z,1005.68
2018-09-13T06:40:29.394Z,1005.71
2018-09-13T06:41:29.410Z,1005.69
2018-09-13T06:42:29.451Z,1005.71
2018-09-13T06:43:29.362Z,1005.76
2018-09-13T06:44:29.361Z,1005.74
2018-09-13T06:45:29.345Z,1005.79
2018-09-13T06:46:29.358Z,1005.74
2018-09-13T06:47:29.325Z,1005.77
2018-09-13T06:48:29.323Z,1005.75
2018-09-13T06:49:29.294Z,1005.70
2018-09-13T06:50:29.299Z,1005.70
2018-09-13T06:51:29.313Z,1005.67
2018-09-13T06:52:29.298Z,1005.70
2018-09-13T06:53:29.288Z,1005.71
2018-09-13T06:54:29.248Z,1005.66
2018-09-13T06:55:29.235Z,1005.70
2018-09-13T06:56:29.222Z,1005.71
2018-09-13T06:57:29.216Z,1005.72
2018-09-13T06:58:29.196Z,1005.73
2018-09-13T06:59:29.212Z,1005.69
2018-09-13T07:00:29.178Z,1005.68
2018-09-13T07:01:29.168Z,1005.71
2018-09-13T07:02:29.201Z,1005.70
2018-09-13T07:03:29.152Z,1005.69
2018-09-13T07:04:29.156Z,1005.74
2018-09-13T07:05:29.125Z,1005.68
2018-09-13T07:06:29.115Z,1005.71
2018-09-13T07:07:29.102Z,1005.69
2018-09-13T07:08:29.098Z,1005.71
2018-09-13T07:09:29.098Z,1005.71
2018-09-13T07:10:29.065Z,1005.73
2018-09-13T07:11:29.074Z,1005.70
2018-09-13T07:12:29.051Z,1005.73
2018-09-13T07:13:29.055Z,1005.73
2018-09-13T07:14:29.059Z,1005.73
2018-09-13T07:15:29.015Z,1005.69
2018-09-13T07:16:29.001Z,1005.68
2018-09-13T07:17:28.996Z,1005.67
2018-09-13T07:18:28.986Z,1005.71
2018-09-13T07:19:28.991Z,1005.72
2018-09-13T07:20:28.961Z,1005.71
2018-09-13T07:21:28.964Z,1005.70
2018-09-13T07:22:28.934Z,1005.70
2018-09-13T07:23:28.953Z,1005.69
2018-09-13T07:24:28.933Z,1005.67
2018-09-13T07:25:28.948Z,1005.71
2018-09-13T07:26:28.899Z,1005.68
2018-09-13T07:27:28.888Z,1005.66
2018-09-13T07:28:28.873Z,1005.70
2018-09-13T07:29:28.900Z,1005.71
2018-09-13T07:30:28.856Z,1005.66
2018-09-13T07:31:28.872Z,1005.70
2018-09-13T07:32:28.849Z,1005.68
2018-09-13T07:33:28.831Z,1005.71
2018-09-13T07:34:28.841Z,1005.74
2018-09-13T07:35:28.820Z,1005.74
2018-09-13T07:36:28.798Z,1005.73
2018-09-13T07:37:28.845Z,1005.73
2018-09-13T07:38:28.779Z,1005.71
2018-09-13T07:39:28.759Z,1005.74
2018-09-13T07:40:28.748Z,1005.76
2018-09-13T07:41:28.737Z,1005.75
2018-09-13T07:42:28.813Z,1005.74
2018-09-13T07:43:28.708Z,1005.76
2018-09-13T07:44:28.700Z,1005.75
2018-09-13T07:45:28.693Z,1005.79
2018-09-13T07:46:28.705Z,1005.78
2018-09-13T07:47:28.701Z,1005.79
2018-09-13T07:48:28.657Z,1005.84
2018-09-13T07:49:28.677Z,1005.81
2018-09-13T07:50:28.642Z,1005.83
2018-09-13T07:51:28.652Z,1005.82
2018-09-13T07:52:28.616Z,1005.86
2018-09-13T07:53:28.612Z,1005.85
2018-09-13T07:54:29.576Z,1005.83
2018-09-13T07:55:28.624Z,1005.84
2018-09-13T07:56:28.634Z,1005.83
2018-09-13T07:57:28.572Z,1005.83
2018-09-13T07:58:28.554Z,1005.84
2018-09-13T07:59:28.543Z,1005.84
2018-09-13T08:00:28.529Z,1005.85
2018-09-13T08:01:28.541Z,1005.87
2018-09-13T08:02:28.502Z,1005.83
2018-09-13T08:03:28.519Z,1005.88
2018-09-13T08:04:28.486Z,1005.92
2018-09-13T08:05:28.475Z,1005.91
2018-09-13T08:06:28.459Z,1005.91
2018-09-13T08:07:28.456Z,1005.90
2018-09-13T08:08:29.326Z,1005.91
2018-09-13T08:09:28.433Z,1005.97
2018-09-13T08:10:28.444Z,1005.96
2018-09-13T08:11:28.456Z,1006.02
2018-09-13T08:12:28.406Z,1006.00
2018-09-13T08:13:28.387Z,1006.04
2018-09-13T08:14:28.374Z,1006.00
2018-09-13T08:15:28.397Z,1006.03
2018-09-13T08:16:28.385Z,1006.04
2018-09-13T08:17:28.355Z,1006.06
2018-09-13T08:18:28.366Z,1006.05
2018-09-13T08:19:28.342Z,1006.04
2018-09-13T08:20:28.358Z,1006.02
2018-09-13T08:21:28.310Z,1006.05
2018-09-13T08:22:28.295Z,1006.04
2018-09-13T08:23:28.284Z,1006.01
2018-09-13T08:24:28.288Z,1006.05
2018-09-13T08:25:28.286Z,1006.07
2018-09-13T08:26:28.265Z,1005.99
2018-09-13T08:27:28.237Z,1006.02
2018-09-13T08:28:28.227Z,1006.06
2018-09-13T08:29:28.227Z,1006.07
2018-09-13T08:30:28.212Z,1006.08
2018-09-13T08:31:28.219Z,1006.03
2018-09-13T08:32:28.186Z,1006.08
2018-09-13T08:33:28.286Z,1006.10
2018-09-13T08:34:28.160Z,1006.08
2018-09-13T08:35:28.200Z,1006.10
2018-09-13T08:36:28.187Z,1006.16
2018-09-13T08:37:28.156Z,1006.13
2018-09-13T08:38:28.118Z,1006.15
2018-09-13T08:39:28.108Z,1006.16
2018-09-13T08:40:28.096Z,1006.17
2018-09-13T08:41:28.108Z,1006.22
2018-09-13T08:42:28.083Z,1006.27
2018-09-13T08:43:28.076Z,1006.26
2018-09-13T08:44:28.062Z,1006.29
2018-09-13T08:45:28.048Z,1006.31
2018-09-13T08:46:28.056Z,1006.31
2018-09-13T08:47:28.084Z,1006.29
2018-09-13T08:48:28.062Z,1006.31
2018-09-13T08:49:28.029Z,1006.24
2018-09-13T08:50:27.994Z,1006.29
2018-09-13T08:51:27.992Z,1006.29
2018-09-13T08:52:27.971Z,1006.27
2018-09-13T08:53:27.959Z,1006.30
2018-09-13T08:54:27.952Z,1006.27
2018-09-13T08:55:27.968Z,1006.27
2018-09-13T08:56:27.925Z,1006.26
2018-09-13T08:57:27.913Z,1006.22
2018-09-13T08:58:27.940Z,1006.18
2018-09-13T08:59:27.889Z,1006.16
2018-09-13T09:00:27.900Z,1006.11
2018-09-13T09:01:27.892Z,1006.06
2018-09-13T09:02:27.870Z,1006.10
2018-09-13T09:03:27.853Z,1006.06
2018-09-13T09:04:27.845Z,1006.07
2018-09-13T09:05:27.852Z,1006.08
2018-09-13T09:06:27.865Z,1006.05
2018-09-13T09:07:27.811Z,1006.05
2018-09-13T09:08:27.837Z,1006.08
2018-09-13T09:09:27.784Z,1006.07
2018-09-13T09:10:27.784Z,1006.05
2018-09-13T09:11:27.788Z,1006.06
2018-09-13T09:12:27.769Z,1006.10
2018-09-13T09:13:27.743Z,1006.13
2018-09-13T09:14:27.740Z,1006.15
2018-09-13T09:15:27.723Z,1006.15
2018-09-13T09:16:27.736Z,1006.14
2018-09-13T09:17:27.698Z,1006.16
2018-09-13T09:18:27.746Z,1006.14
2018-09-13T09:19:27.672Z,1006.14
2018-09-13T09:20:27.686Z,1006.15
2018-09-13T09:21:27.676Z,1006.12
2018-09-13T09:22:27.653Z,1006.13
2018-09-13T09:23:27.628Z,1006.08
2018-09-13T09:24:27.620Z,1006.06
2018-09-13T09:25:27.614Z,1006.09
2018-09-13T09:26:27.627Z,1006.00
2018-09-13T09:27:27.640Z,1006.06
2018-09-13T09:28:27.584Z,1006.08
2018-09-13T09:29:27.603Z,1006.08
2018-09-13T09:30:27.552Z,1006.13
2018-09-13T09:31:27.559Z,1006.09
2018-09-13T09:32:27.532Z,1006.11
2018-09-13T09:33:27.536Z,1006.10
2018-09-13T09:34:27.528Z,1006.16
2018-09-13T09:35:29.222Z,1006.16
2018-09-13T09:36:27.512Z,1006.14
2018-09-13T09:37:27.522Z,1006.13
2018-09-13T09:38:27.469Z,1006.18
2018-09-13T09:39:27.465Z,1006.19
2018-09-13T09:40:27.497Z,1006.23
2018-09-13T09:41:27.468Z,1006.24
2018-09-13T09:42:27.428Z,1006.21
2018-09-13T09:43:27.415Z,1006.19
2018-09-13T09:44:27.405Z,1006.18
2018-09-13T09:45:27.397Z,1006.22
2018-09-13T09:46:27.409Z,1006.22
2018-09-13T09:47:27.383Z,1006.24
2018-09-13T09:48:27.382Z,1006.25
2018-09-13T09:49:27.351Z,1006.22
2018-09-13T09:50:27.411Z,1006.21
2018-09-13T09:51:27.345Z,1006.19
2018-09-13T09:52:27.367Z,1006.22
2018-09-13T09:53:27.342Z,1006.22
2018-09-13T09:54:27.308Z,1006.24
2018-09-13T09:55:27.285Z,1006.24
2018-09-13T09:56:27.293Z,1006.24
2018-09-13T09:57:27.266Z,1006.26
2018-09-13T09:58:27.279Z,1006.24
2018-09-13T09:59:27.254Z,1006.29
2018-09-13T10:00:27.244Z,1006.22
2018-09-13T10:01:27.242Z,1006.20
2018-09-13T10:02:27.213Z,1006.22
2018-09-13T10:03:27.196Z,1006.20
2018-09-13T10:04:27.211Z,1006.21
2018-09-13T10:05:27.179Z,1006.16
2018-09-13T10:06:27.187Z,1006.17
2018-09-13T10:07:27.161Z,1006.15
2018-09-13T10:08:27.152Z,1006.17
2018-09-13T10:09:27.133Z,1006.17
2018-09-13T10:10:27.125Z,1006.19
2018-09-13T10:11:27.156Z,1006.14
2018-09-13T10:12:28.054Z,1006.14
2018-09-13T10:13:27.297Z,1006.18
2018-09-13T10:14:28.296Z,1006.17
2018-09-13T10:15:34.197Z,1006.17
2018-09-13T10:16:31.669Z,1006.22
2018-09-13T10:17:27.089Z,1006.17
2018-09-13T10:18:27.043Z,1006.20
2018-09-13T10:19:27.045Z,1006.19
2018-09-13T10:20:27.018Z,1006.24
2018-09-13T10:21:27.043Z,1006.21
2018-09-13T10:22:27.044Z,1006.22
2018-09-13T10:23:26.984Z,1006.19
2018-09-13T10:24:26.973Z,1006.17
2018-09-13T10:25:26.987Z,1006.17
2018-09-13T10:26:26.982Z,1006.13
2018-09-13T10:27:26.944Z,1006.17
2018-09-13T10:28:27.326Z,1006.20
2018-09-13T10:29:27.022Z,1006.21
2018-09-13T10:30:26.919Z,1006.11
2018-09-13T10:31:26.903Z,1006.15
2018-09-13T10:32:26.908Z,1006.15
2018-09-13T10:33:26.896Z,1006.14
2018-09-13T10:34:26.907Z,1006.11
2018-09-13T10:35:26.854Z,1006.15
2018-09-13T10:36:26.880Z,1006.20
2018-09-13T10:37:26.861Z,1006.16
2018-09-13T10:38:26.832Z,1006.17
2018-09-13T10:39:26.829Z,1006.17
2018-09-13T10:40:26.828Z,1006.16
2018-09-13T10:41:26.822Z,1006.14
2018-09-13T10:42:26.824Z,1006.18
2018-09-13T10:43:26.811Z,1006.19
2018-09-13T10:44:26.769Z,1006.12
2018-09-13T10:45:26.771Z,1006.14
2018-09-13T10:46:26.738Z,1006.13
2018-09-13T10:47:26.774Z,1006.15
2018-09-13T10:48:26.717Z,1006.16
2018-09-13T10:49:26.718Z,1006.10
2018-09-13T10:50:26.792Z,1006.11
2018-09-13T10:51:26.689Z,1006.12
2018-09-13T10:52:26.821Z,1006.15
2018-09-13T10:53:26.708Z,1006.13
2018-09-13T10:54:26.714Z,1006.11
2018-09-13T10:55:26.655Z,1006.12
2018-09-13T10:56:26.632Z,1006.14
2018-09-13T10:57:26.651Z,1006.09
2018-09-13T10:58:26.636Z,1006.12
2018-09-13T10:59:26.597Z,1006.17
2018-09-13T11:00:26.588Z,1006.14
2018-09-13T11:01:26.583Z,1006.19
2018-09-13T11:02:26.576Z,1006.12
2018-09-13T11:03:26.608Z,1006.14
2018-09-13T11:04:26.564Z,1006.18
2018-09-13T11:05:26.553Z,1006.10
2018-09-13T11:06:26.519Z,1006.10
2018-09-13T11:07:26.520Z,1006.11
2018-09-13T11:08:26.522Z,1006.11
2018-09-13T11:09:26.498Z,1006.11
2018-09-13T11:10:26.518Z,1006.12
2018-09-13T11:11:26.529Z,1006.10
2018-09-13T11:12:26.460Z,1006.06
2018-09-13T11:13:26.470Z,1006.08
2018-09-13T11:14:26.451Z,1006.02
2018-09-13T11:15:26.421Z,1006.13
2018-09-13T11:16:26.415Z,1006.18
2018-09-13T11:17:26.406Z,1006.17
2018-09-13T11:18:26.417Z,1006.14
2018-09-13T11:19:26.394Z,1006.15
2018-09-13T11:20:26.394Z,1006.14
2018-09-13T11:21:26.362Z,1006.14
2018-09-13T11:22:26.356Z,1006.13
2018-09-13T11:23:26.339Z,1006.12
2018-09-13T11:24:26.426Z,1006.10
2018-09-13T11:25:26.360Z,1006.12
2018-09-13T11:26:26.330Z,1006.09
2018-09-13T11:27:26.336Z,1006.11
2018-09-13T11:28:26.293Z,1006.11
2018-09-13T11:29:26.306Z,1006.06
2018-09-13T11:30:26.266Z,1006.05
2018-09-13T11:31:26.284Z,1006.04
2018-09-13T11:32:26.249Z,1006.04
2018-09-13T11:33:26.233Z,1006.03
2018-09-13T11:34:26.250Z,1005.99
2018-09-13T11:35:26.211Z,1006.01
2018-09-13T11:36:26.203Z,1006.01
2018-09-13T11:37:26.201Z,1005.91
2018-09-13T11:38:26.182Z,1005.94
2018-09-13T11:39:26.198Z,1005.90
2018-09-13T11:40:26.257Z,1005.97
2018-09-13T11:41:26.174Z,1005.94
2018-09-13T11:42:26.154Z,1005.94
2018-09-13T11:43:26.118Z,1005.96
2018-09-13T11:44:26.577Z,1005.95
2018-09-13T11:45:26.133Z,1005.92
2018-09-13T11:46:26.380Z,1005.93
2018-09-13T11:47:41.122Z,1005.95
2018-09-13T11:48:28.172Z,1005.97
2018-09-13T11:49:26.086Z,1005.97
2018-09-13T11:50:26.054Z,1006.00
2018-09-13T11:51:26.619Z,1006.01
2018-09-13T11:52:26.257Z,1005.97
2018-09-13T11:53:26.011Z,1005.94
2018-09-13T11:54:26.045Z,1005.87
2018-09-13T11:55:25.990Z,1005.88
2018-09-13T11:56:25.981Z,1005.83
2018-09-13T11:57:25.981Z,1005.91
2018-09-13T11:58:25.963Z,1005.86
2018-09-13T11:59:25.975Z,1005.86
2018-09-13T12:00:25.945Z,1005.91
2018-09-13T12:01:27.538Z,1005.98
2018-09-13T12:02:25.915Z,1005.88
2018-09-13T12:03:26.860Z,1005.93
2018-09-13T12:04:25.928Z,1005.89
2018-09-13T12:05:25.887Z,1005.95